Floral Park, NY (11004)

04:08 EDT le 20 octobre 2014 (GMT -0400)
Floral Park | Change Station
CLOSE
Current Station
Stations météorologiques personnelles
Location: Floral Park, NY
Altitude: 29 m
Stations météo à proximité

Alt. 29 m 40.72 °N, 73.71 °W | Updated 4 seconds ago

Partiellement nuageux
Partiellement nuageux
3.2 ° C
Paraît 3 ° C
N
0.0
Vent Variable Vent de Sud
Gusts 0.0 km/h

Aujourd'hui
Haut(e) -- | Bas -- ° C
--% Risque de précip.
Hier
Haut(e) -- | Bas -- ° C
Precip. -- mm
7:11 AM 6:07 PM
Lune descendante, 12% visible
Pression 1019 hPa
Visibilité 16.1 Kilomètres
Nuages Nuageux 7620 m
Refroidissement éolien 3 ° C
Point de rosée 0 ° C
Humidité 78%
Précipitations 0 mm
Profondeur de la couche neigeuse Non disponible.
UV 0 sur 12
Pollen 2.30 sur 12
Qualité de l'air Non disponible.
Flu Activity Sporadic
METAR KJFK 200751Z 28007KT 10SM BKN250 07/M03 A3009 RMK AO2 SLP189 T00671028 $

More Conditions Fewer Conditions

Pression 1019 hPa
Visibilité 16.1 Kilomètres
Nuages Nuageux 7620 m
Refroidissement éolien 3 ° C
Point de rosée 0 ° C
Humidité 78%
Précipitations 0 mm
Profondeur de la couche neigeuse Non disponible.
UV 0 sur 12
Pollen 2.30 sur 12
Qualité de l'air Non disponible.
Flu Activity Sporadic
METAR KJFK 200751Z 28007KT 10SM BKN250 07/M03 A3009 RMK AO2 SLP189 T00671028 $

More Conditions Fewer Conditions

10-Day Weather Forecast

Almanac

Astronomie

Oct. 20, 2014 Lever Coucher
Temps réel 07:11 EDT 18:07 EDT
Crépuscule civil 06:43 EDT 18:34 EDT
Crépuscule nautique 06:11 EDT 19:06 EDT
Crépuscule astronomique 05:40 EDT 19:38 EDT
Lune 03:56 EDT 16:29 EDT
Durée de lumière visible 11h 51m
Longueur du jour
10h 55m
Lune descendante, 12% of the Moon is Illuminated
Aujourd'hui
Lune descendante
Oct 23
Nouveau
Oct 30
Premier quartier
Nov 6
Pleine lune
Nov 14
Dernier quartier

Extrêmes aujourd'hui

State Highs State Lows

Community

WunderPhotos

Upload Photos

1,763,316 Photos téléchargées !

Nearby

Épaisseur de neige

Station Depth Altitude
Pas de nouvelles chutes de neige

Activité sismique

Ville Distance Mag. Time & Date
No recent earthquake activity has been reported nearby.
Minimum magnitude displayed is 2.5.

Températures des eaux côtières

Lieu Température
Kings Point, NY 15.0 ° C
Bridgeport, CT 17.8 ° C

Stations météo à proximité